createdAt,value
2023-09-12T00:00:28.794Z,19.30
2023-09-12T00:02:58.211Z,19.30
2023-09-12T00:05:28.134Z,19.20
2023-09-12T00:07:57.241Z,19.30
2023-09-12T00:10:27.969Z,19.20
2023-09-12T00:12:57.078Z,19.30
2023-09-12T00:15:25.997Z,19.20
2023-09-12T00:17:55.107Z,19.10
2023-09-12T00:20:24.402Z,19.10
2023-09-12T00:26:35.125Z,19.00
2023-09-12T00:29:03.311Z,19.00
2023-09-12T00:31:31.486Z,19.00
2023-09-12T00:33:59.806Z,18.90
2023-09-12T00:36:28.182Z,18.90
2023-09-12T00:38:56.564Z,18.80
2023-09-12T00:41:24.807Z,18.90
2023-09-12T00:43:54.467Z,18.80
2023-09-12T00:46:25.299Z,18.80
2023-09-12T00:48:54.796Z,18.80
2023-09-12T00:51:24.502Z,18.80
2023-09-12T00:53:52.856Z,18.80
2023-09-12T00:56:21.027Z,18.80
2023-09-12T00:58:52.020Z,18.80
2023-09-12T01:01:22.384Z,18.80
2023-09-12T01:03:51.322Z,18.80
2023-09-12T01:06:21.666Z,18.70
2023-09-12T01:08:49.982Z,18.70
2023-09-12T01:11:19.440Z,18.70
2023-09-12T01:13:47.630Z,18.70
2023-09-12T01:16:15.811Z,18.60
2023-09-12T01:18:47.262Z,18.70
2023-09-12T01:21:40.753Z,18.70
2023-09-12T01:24:31.797Z,18.70
2023-09-12T01:27:16.932Z,18.70
2023-09-12T01:29:48.224Z,18.70
2023-09-12T01:32:19.582Z,18.70
2023-09-12T01:34:47.819Z,18.80
2023-09-12T01:37:16.143Z,18.80
2023-09-12T01:39:44.678Z,18.80
2023-09-12T01:42:17.112Z,18.90
2023-09-12T01:44:48.074Z,18.90
2023-09-12T01:47:16.871Z,18.90
2023-09-12T01:49:47.810Z,19.00
2023-09-12T01:52:16.908Z,19.10
2023-09-12T01:54:46.955Z,19.10
2023-09-12T01:57:15.967Z,19.20
2023-09-12T01:59:46.586Z,19.20
2023-09-12T02:02:14.789Z,19.30
2023-09-12T02:04:43.011Z,19.30
2023-09-12T02:07:11.259Z,19.30
2023-09-12T02:09:39.461Z,19.30
2023-09-12T02:12:08.260Z,19.30
2023-09-12T02:14:36.498Z,19.30
2023-09-12T02:17:06.305Z,19.30
2023-09-12T02:19:34.555Z,19.30
2023-09-12T02:22:02.817Z,19.30
2023-09-12T02:24:31.034Z,19.20
2023-09-12T02:26:59.163Z,19.20
2023-09-12T02:29:27.269Z,19.10
2023-09-12T02:31:55.465Z,19.20
2023-09-12T02:34:25.000Z,19.10
2023-09-12T02:36:53.242Z,19.10
2023-09-12T02:39:21.451Z,19.10
2023-09-12T02:41:49.653Z,19.10
2023-09-12T02:44:17.871Z,19.10
2023-09-12T02:46:46.089Z,19.10
2023-09-12T02:49:14.287Z,19.10
2023-09-12T02:51:43.899Z,19.10
2023-09-12T02:54:12.130Z,19.10
2023-09-12T02:56:40.271Z,19.10
2023-09-12T02:59:08.530Z,19.00
2023-09-12T03:01:36.834Z,19.00
2023-09-12T03:04:05.482Z,19.00
2023-09-12T03:06:34.105Z,19.00
2023-09-12T03:09:03.778Z,19.00
2023-09-12T03:11:31.998Z,18.90
2023-09-12T03:14:00.214Z,18.90
2023-09-12T03:16:28.481Z,18.90
2023-09-12T03:18:56.673Z,18.90
2023-09-12T03:21:25.066Z,18.80
2023-09-12T03:23:53.251Z,18.80
2023-09-12T03:26:22.833Z,18.80
2023-09-12T03:28:51.742Z,18.70
2023-09-12T03:31:20.836Z,18.70
2023-09-12T03:33:50.920Z,18.60
2023-09-12T03:36:19.624Z,18.50
2023-09-12T03:38:47.913Z,18.60
2023-09-12T03:41:16.060Z,18.50
2023-09-12T03:43:45.633Z,18.50
2023-09-12T03:46:13.960Z,18.40
2023-09-12T03:48:42.528Z,18.40
2023-09-12T03:51:10.971Z,18.40
2023-09-12T03:53:39.248Z,18.40
2023-09-12T03:56:07.574Z,18.40
2023-09-12T03:58:35.712Z,18.40
2023-09-12T04:01:05.276Z,18.40
2023-09-12T04:03:33.753Z,18.40
2023-09-12T04:06:01.996Z,18.40
2023-09-12T04:08:30.200Z,18.40
2023-09-12T04:10:58.311Z,18.40
2023-09-12T04:13:26.446Z,18.30
2023-09-12T04:15:54.750Z,18.20
2023-09-12T04:18:24.501Z,18.20
2023-09-12T04:20:52.746Z,18.30
2023-09-12T04:23:21.106Z,18.30
2023-09-12T04:25:49.409Z,18.30
2023-09-12T04:28:17.549Z,18.30
2023-09-12T04:30:47.293Z,18.30
2023-09-12T04:33:15.744Z,18.30
2023-09-12T04:35:45.339Z,18.30
2023-09-12T04:38:13.484Z,18.30
2023-09-12T04:40:41.750Z,18.30
2023-09-12T04:43:09.930Z,18.40
2023-09-12T04:45:38.206Z,18.40
2023-09-12T04:48:07.273Z,18.30
2023-09-12T04:50:35.633Z,18.30
2023-09-12T04:53:05.543Z,18.30
2023-09-12T04:55:33.870Z,18.30
2023-09-12T04:58:02.113Z,18.20
2023-09-12T05:00:30.414Z,18.10
2023-09-12T05:02:58.653Z,18.10
2023-09-12T05:05:27.069Z,18.20
2023-09-12T05:07:55.270Z,18.20
2023-09-12T05:10:24.849Z,18.20
2023-09-12T05:12:53.066Z,18.30
2023-09-12T05:15:21.314Z,18.30
2023-09-12T05:17:49.556Z,18.20
2023-09-12T05:20:17.870Z,18.20
2023-09-12T05:22:46.011Z,18.20
2023-09-12T05:25:14.196Z,18.30
2023-09-12T05:27:43.834Z,18.30
2023-09-12T05:30:13.028Z,18.30
2023-09-12T05:32:41.280Z,18.30
2023-09-12T05:35:20.939Z,18.20
2023-09-12T05:37:50.026Z,18.30
2023-09-12T05:40:18.309Z,18.30
2023-09-12T05:42:47.852Z,18.40
2023-09-12T05:45:16.238Z,18.50
2023-09-12T05:47:44.574Z,18.50
2023-09-12T05:50:13.421Z,18.60
2023-09-12T05:52:42.829Z,18.70
2023-09-12T05:55:11.752Z,18.70
2023-09-12T05:57:39.947Z,18.80
2023-09-12T06:00:12.740Z,18.90
2023-09-12T06:02:41.156Z,18.90
2023-09-12T06:05:10.056Z,19.10
2023-09-12T06:07:42.073Z,19.20
2023-09-12T06:10:11.252Z,19.20
2023-09-12T06:12:39.509Z,19.30
2023-09-12T06:15:10.071Z,19.50
2023-09-12T06:17:38.430Z,19.60
2023-09-12T06:20:08.529Z,19.60
2023-09-12T06:22:37.152Z,19.80
2023-09-12T06:25:05.832Z,19.80
2023-09-12T06:27:34.043Z,19.90
2023-09-12T06:30:02.319Z,20.10
2023-09-12T06:32:31.862Z,20.20
2023-09-12T06:35:00.034Z,20.30
2023-09-12T06:37:28.267Z,20.40
2023-09-12T06:39:56.450Z,20.50
2023-09-12T06:42:24.627Z,20.60
2023-09-12T06:44:52.845Z,20.60
2023-09-12T06:47:21.122Z,20.80
2023-09-12T06:49:54.115Z,20.80
2023-09-12T06:52:23.842Z,21.00
2023-09-12T06:54:52.173Z,21.20
2023-09-12T06:57:20.454Z,21.30
2023-09-12T06:59:50.390Z,21.50
2023-09-12T07:02:19.823Z,21.60
2023-09-12T07:04:48.140Z,21.80
2023-09-12T07:07:17.660Z,21.90
2023-09-12T07:09:45.879Z,22.10
2023-09-12T07:12:14.090Z,22.30
2023-09-12T07:14:42.284Z,22.40
2023-09-12T07:17:10.695Z,22.50
2023-09-12T07:19:38.860Z,22.60
2023-09-12T07:22:07.052Z,22.80
2023-09-12T07:24:36.710Z,22.90
2023-09-12T07:27:05.008Z,23.20
2023-09-12T07:29:33.169Z,23.30
2023-09-12T07:32:01.525Z,23.40
2023-09-12T07:34:29.835Z,23.60
2023-09-12T07:36:58.422Z,23.60
2023-09-12T07:39:26.856Z,23.70
2023-09-12T07:41:56.394Z,23.70
2023-09-12T07:44:24.629Z,23.70
2023-09-12T07:46:52.976Z,23.40
2023-09-12T07:49:21.172Z,23.40
2023-09-12T07:51:49.310Z,23.40
2023-09-12T07:54:19.063Z,23.60
2023-09-12T07:56:47.274Z,23.70
2023-09-12T07:59:16.809Z,23.60
2023-09-12T08:01:44.990Z,23.50
2023-09-12T08:04:13.942Z,23.50
2023-09-12T08:06:57.032Z,23.50
2023-09-12T08:09:26.365Z,23.70
2023-09-12T08:11:54.566Z,23.90
2023-09-12T08:14:24.163Z,24.10
2023-09-12T08:16:52.298Z,24.30
2023-09-12T08:19:20.441Z,24.50
2023-09-12T08:21:49.640Z,24.70
2023-09-12T08:24:17.893Z,24.90
2023-09-12T08:26:46.070Z,25.00
2023-09-12T08:29:14.201Z,25.20
2023-09-12T08:31:43.825Z,25.30
2023-09-12T08:34:13.477Z,25.40
2023-09-12T08:36:41.797Z,25.50
2023-09-12T08:39:17.750Z,25.60
2023-09-12T08:41:47.735Z,25.70
2023-09-12T08:44:16.167Z,25.80
2023-09-12T08:46:47.351Z,25.90
2023-09-12T08:49:16.519Z,26.10
2023-09-12T08:51:45.864Z,26.20
2023-09-12T08:54:14.673Z,26.30
2023-09-12T08:56:45.240Z,26.40
2023-09-12T08:59:13.915Z,26.40
2023-09-12T09:01:42.702Z,26.50
2023-09-12T09:04:12.396Z,26.80
2023-09-12T09:06:43.498Z,26.80
2023-09-12T09:09:12.325Z,26.90
2023-09-12T09:11:40.479Z,27.10
2023-09-12T09:14:08.629Z,27.20
2023-09-12T09:16:37.485Z,27.20
2023-09-12T09:19:10.923Z,27.30
2023-09-12T09:21:42.175Z,27.40
2023-09-12T09:24:11.764Z,27.60
2023-09-12T09:26:45.615Z,27.60
2023-09-12T09:29:16.679Z,27.60
2023-09-12T09:31:46.447Z,27.60
2023-09-12T09:34:17.800Z,27.50
2023-09-12T09:36:50.928Z,27.50
2023-09-12T09:39:21.245Z,27.60
2023-09-12T09:41:50.364Z,27.60
2023-09-12T09:44:19.177Z,27.70
2023-09-12T09:46:48.003Z,27.80
2023-09-12T09:49:18.696Z,27.90
2023-09-12T09:51:48.493Z,27.90
2023-09-12T09:54:17.564Z,27.80
2023-09-12T09:56:49.377Z,27.90
2023-09-12T09:59:18.406Z,28.10
2023-09-12T10:01:47.918Z,28.20
2023-09-12T10:04:16.962Z,28.30
2023-09-12T10:06:48.160Z,28.40
2023-09-12T10:09:17.970Z,28.50
2023-09-12T10:11:49.403Z,28.60
2023-09-12T10:14:20.532Z,28.70
2023-09-12T10:16:50.153Z,28.50
2023-09-12T10:19:21.727Z,28.50
2023-09-12T10:21:57.205Z,28.50
2023-09-12T10:24:27.172Z,28.50
2023-09-12T10:26:57.140Z,28.60
2023-09-12T10:29:25.413Z,28.80
2023-09-12T10:31:53.790Z,28.90
2023-09-12T10:34:23.123Z,28.90
2023-09-12T10:36:53.201Z,29.00
2023-09-12T10:39:22.864Z,29.10
2023-09-12T10:41:54.138Z,29.20
2023-09-12T10:44:23.765Z,29.30
2023-09-12T10:46:52.522Z,29.30
2023-09-12T10:49:20.726Z,29.40
2023-09-12T10:51:49.908Z,29.40
2023-09-12T10:54:26.442Z,29.40
2023-09-12T10:57:10.051Z,29.50
2023-09-12T10:59:38.204Z,29.50
2023-09-12T11:02:31.694Z,29.70
2023-09-12T11:05:00.440Z,29.70
2023-09-12T11:07:46.357Z,29.60
2023-09-12T11:10:23.763Z,29.70
2023-09-12T11:12:53.525Z,29.80
2023-09-12T11:15:23.073Z,29.70
2023-09-12T11:18:01.758Z,29.80
2023-09-12T11:20:55.391Z,29.80
2023-09-12T11:23:23.774Z,30.00
2023-09-12T11:26:07.052Z,30.20
2023-09-12T11:28:35.450Z,30.30
2023-09-12T11:31:03.825Z,30.60
2023-09-12T11:33:33.961Z,30.50
2023-09-12T11:36:06.810Z,30.70
2023-09-12T11:38:35.370Z,30.90
2023-09-12T11:41:03.820Z,31.10
2023-09-12T11:43:33.038Z,31.30
2023-09-12T11:46:01.507Z,31.40
2023-09-12T11:48:31.814Z,31.50
2023-09-12T11:51:02.723Z,31.50
2023-09-12T11:53:36.511Z,31.60
2023-09-12T11:56:05.022Z,31.50
2023-09-12T11:58:33.345Z,31.70
2023-09-12T12:01:16.915Z,31.70
2023-09-12T12:03:46.863Z,31.70
2023-09-12T12:06:15.592Z,31.80
2023-09-12T12:08:45.395Z,31.70
2023-09-12T12:11:13.716Z,31.80
2023-09-12T12:13:42.391Z,32.00
2023-09-12T12:16:28.422Z,32.10
2023-09-12T12:18:58.381Z,32.20
2023-09-12T12:21:26.851Z,32.10
2023-09-12T12:24:04.097Z,32.30
2023-09-12T12:26:33.145Z,32.40
2023-09-12T12:29:02.188Z,32.50
2023-09-12T12:31:32.539Z,32.50
2023-09-12T12:34:38.505Z,32.50
2023-09-12T12:36:57.142Z,32.40
2023-09-12T12:39:27.802Z,32.30
2023-09-12T12:41:56.637Z,32.60
2023-09-12T12:44:24.948Z,32.80
2023-09-12T12:46:54.337Z,32.90
2023-09-12T12:49:24.217Z,33.10
2023-09-12T12:51:52.717Z,33.30
2023-09-12T12:54:25.287Z,33.30
2023-09-12T12:56:55.203Z,33.20
2023-09-12T12:59:23.411Z,33.30
2023-09-12T13:01:53.354Z,33.30
2023-09-12T13:04:21.768Z,33.40
2023-09-12T13:06:50.033Z,33.50
2023-09-12T13:09:18.792Z,33.70
2023-09-12T13:11:46.997Z,33.70
2023-09-12T13:14:16.588Z,33.80
2023-09-12T13:16:44.871Z,33.90
2023-09-12T13:19:13.922Z,34.10
2023-09-12T13:21:43.668Z,34.10
2023-09-12T13:24:12.754Z,34.10
2023-09-12T13:26:41.334Z,34.30
2023-09-12T13:29:09.756Z,34.50
2023-09-12T13:31:39.446Z,34.30
2023-09-12T13:34:07.814Z,34.20
2023-09-12T13:36:36.084Z,34.40
2023-09-12T13:39:05.295Z,34.70
2023-09-12T13:41:33.548Z,34.70
2023-09-12T13:44:01.768Z,34.70
2023-09-12T13:46:31.284Z,34.80
2023-09-12T13:49:04.559Z,34.80
2023-09-12T13:51:33.050Z,34.60
2023-09-12T13:54:01.275Z,34.80
2023-09-12T13:56:29.435Z,35.10
2023-09-12T13:58:57.837Z,35.20
2023-09-12T14:01:33.662Z,35.50
2023-09-12T14:04:05.795Z,35.60
2023-09-12T14:06:36.870Z,35.40
2023-09-12T14:09:06.053Z,35.60
2023-09-12T14:11:36.522Z,35.20
2023-09-12T14:16:37.798Z,35.70
2023-09-12T14:19:09.381Z,35.70
2023-09-12T14:21:38.519Z,35.70
2023-09-12T14:24:07.849Z,35.80
2023-09-12T14:26:36.200Z,36.20
2023-09-12T14:29:06.002Z,36.30
2023-09-12T14:31:34.669Z,35.70
2023-09-12T14:34:03.031Z,35.70
2023-09-12T14:36:32.812Z,36.10
2023-09-12T14:39:01.030Z,36.00
2023-09-12T14:41:29.185Z,36.30
2023-09-12T14:43:57.326Z,36.30
2023-09-12T14:46:25.520Z,36.40
2023-09-12T14:49:02.027Z,36.10
2023-09-12T14:51:34.733Z,36.20
2023-09-12T14:54:04.501Z,36.10
2023-09-12T14:56:32.948Z,35.70
2023-09-12T14:59:01.533Z,35.40
2023-09-12T15:01:29.805Z,35.00
2023-09-12T15:03:58.268Z,35.00
2023-09-12T15:06:26.724Z,34.90
2023-09-12T15:08:56.332Z,35.10
2023-09-12T15:11:24.467Z,35.20
2023-09-12T15:13:52.852Z,35.40
2023-09-12T15:16:21.354Z,35.20
2023-09-12T15:18:49.764Z,35.40
2023-09-12T15:21:18.026Z,35.40
2023-09-12T15:23:46.530Z,35.50
2023-09-12T15:26:16.401Z,35.70
2023-09-12T15:28:45.908Z,36.00
2023-09-12T15:31:14.707Z,36.10
2023-09-12T15:33:43.144Z,36.30
2023-09-12T15:36:13.446Z,36.50
2023-09-12T15:38:41.626Z,36.40
2023-09-12T15:41:09.885Z,36.70
2023-09-12T15:43:39.704Z,36.50
2023-09-12T15:46:07.977Z,36.20
2023-09-12T15:48:36.693Z,36.30
2023-09-12T15:51:06.851Z,36.20
2023-09-12T15:53:35.100Z,36.30
2023-09-12T15:56:03.270Z,36.50
2023-09-12T15:58:31.431Z,37.60
2023-09-12T16:01:04.128Z,39.60
2023-09-12T16:03:32.525Z,41.30
2023-09-12T16:06:00.833Z,41.60
2023-09-12T16:08:29.020Z,40.80
2023-09-12T16:10:57.118Z,39.80
2023-09-12T16:13:25.397Z,36.70
2023-09-12T16:15:53.601Z,35.00
2023-09-12T16:18:23.630Z,34.20
2023-09-12T16:20:51.871Z,33.60
2023-09-12T16:23:20.079Z,33.00
2023-09-12T16:25:52.073Z,32.60
2023-09-12T16:28:21.526Z,32.30
2023-09-12T16:30:49.825Z,31.70
2023-09-12T16:33:18.086Z,31.30
2023-09-12T16:35:47.819Z,30.70
2023-09-12T16:38:16.084Z,30.30
2023-09-12T16:40:44.242Z,29.80
2023-09-12T16:43:12.437Z,29.60
2023-09-12T16:45:40.644Z,29.50
2023-09-12T16:48:09.257Z,29.20
2023-09-12T16:50:37.459Z,28.90
2023-09-12T16:53:07.052Z,28.70
2023-09-12T16:55:35.931Z,28.50
2023-09-12T16:58:04.673Z,28.30
2023-09-12T17:00:33.045Z,28.00
2023-09-12T17:03:01.247Z,27.90
2023-09-12T17:05:29.523Z,27.90
2023-09-12T17:07:57.663Z,27.70
2023-09-12T17:10:27.517Z,27.60
2023-09-12T17:12:55.867Z,27.50
2023-09-12T17:15:26.125Z,27.40
2023-09-12T17:17:54.455Z,27.40
2023-09-12T17:20:22.813Z,27.30
2023-09-12T17:22:51.180Z,27.10
2023-09-12T17:25:19.558Z,27.10
2023-09-12T17:27:50.020Z,27.00
2023-09-12T17:30:19.662Z,26.90
2023-09-12T17:32:47.816Z,26.90
2023-09-12T17:35:16.344Z,26.80
2023-09-12T17:37:44.562Z,26.80
2023-09-12T17:40:13.468Z,26.70
2023-09-12T17:42:41.668Z,26.60
2023-09-12T17:45:12.262Z,26.70
2023-09-12T17:47:43.285Z,26.60
2023-09-12T17:50:12.355Z,26.40
2023-09-12T17:52:40.615Z,26.30
2023-09-12T17:55:11.643Z,26.10
2023-09-12T17:57:39.860Z,26.00
2023-09-12T18:00:11.183Z,25.90
2023-09-12T18:02:39.543Z,25.80
2023-09-12T18:05:09.537Z,25.80
2023-09-12T18:07:37.743Z,25.70
2023-09-12T18:10:06.916Z,25.50
2023-09-12T18:12:35.222Z,25.40
2023-09-12T18:15:04.899Z,25.40
2023-09-12T18:17:34.457Z,25.60
2023-09-12T18:20:04.446Z,25.70
2023-09-12T18:22:32.910Z,25.50
2023-09-12T18:25:02.001Z,25.40
2023-09-12T18:27:30.597Z,25.30
2023-09-12T18:29:58.740Z,25.30
2023-09-12T18:32:26.912Z,25.20
2023-09-12T18:34:58.433Z,25.00
2023-09-12T18:37:26.644Z,24.90
2023-09-12T18:39:54.842Z,24.90
2023-09-12T18:42:23.154Z,24.80
2023-09-12T18:44:51.271Z,24.80
2023-09-12T18:47:19.850Z,24.70
2023-09-12T18:49:48.876Z,24.70
2023-09-12T18:52:18.428Z,24.60
2023-09-12T18:54:46.578Z,24.60
2023-09-12T18:57:14.734Z,24.50
2023-09-12T18:59:47.187Z,24.40
2023-09-12T19:02:15.651Z,24.40
2023-09-12T19:04:44.045Z,24.40
2023-09-12T19:07:12.331Z,24.30
2023-09-12T19:09:41.870Z,24.30
2023-09-12T19:12:10.269Z,24.20
2023-09-12T19:14:38.411Z,24.10
2023-09-12T19:17:06.889Z,24.10
2023-09-12T19:19:40.935Z,24.00
2023-09-12T19:22:09.683Z,23.90
2023-09-12T19:24:37.927Z,23.80
2023-09-12T19:27:07.713Z,23.60
2023-09-12T19:29:49.339Z,23.60
2023-09-12T19:32:17.465Z,23.60
2023-09-12T19:34:46.002Z,23.50
2023-09-12T19:37:14.219Z,23.40
2023-09-12T19:39:42.589Z,23.50
2023-09-12T19:42:12.126Z,23.40
2023-09-12T19:44:41.772Z,23.40
2023-09-12T19:47:09.868Z,23.40
2023-09-12T19:49:38.019Z,23.30
2023-09-12T19:52:07.196Z,23.20
2023-09-12T19:54:35.460Z,23.10
2023-09-12T19:57:03.843Z,23.10
2023-09-12T19:59:34.117Z,23.00
2023-09-12T20:02:03.196Z,23.00
2023-09-12T20:04:34.903Z,23.00
2023-09-12T20:07:04.293Z,23.10
2023-09-12T20:09:32.522Z,23.00
2023-09-12T20:12:00.692Z,23.00
2023-09-12T20:14:28.965Z,22.90
2023-09-12T20:16:58.487Z,22.90
2023-09-12T20:19:26.694Z,22.90
2023-09-12T20:21:54.839Z,22.90
2023-09-12T20:24:22.968Z,22.90
2023-09-12T20:26:51.161Z,22.80
2023-09-12T20:29:19.360Z,22.70
2023-09-12T20:31:50.620Z,22.70
2023-09-12T20:34:21.306Z,22.80
2023-09-12T20:36:49.509Z,22.70
2023-09-12T20:39:26.980Z,22.70
2023-09-12T20:41:56.997Z,22.60
2023-09-12T20:44:26.624Z,22.70
2023-09-12T20:46:56.313Z,22.70
2023-09-12T20:49:26.784Z,22.70
2023-09-12T20:51:56.327Z,22.60
2023-09-12T20:54:25.053Z,22.50
2023-09-12T20:56:54.078Z,22.50
2023-09-12T20:59:23.142Z,22.50
2023-09-12T21:01:52.367Z,22.50
2023-09-12T21:04:21.494Z,22.50
2023-09-12T21:06:52.229Z,22.50
2023-09-12T21:09:21.210Z,22.50
2023-09-12T21:11:50.562Z,22.50
2023-09-12T21:14:19.403Z,22.50
2023-09-12T21:16:48.777Z,22.50
2023-09-12T21:19:18.193Z,22.50
2023-09-12T21:21:46.964Z,22.50
2023-09-12T21:24:17.844Z,22.50
2023-09-12T21:26:46.959Z,22.50
2023-09-12T21:29:16.223Z,22.50
2023-09-12T21:31:45.054Z,22.60
2023-09-12T21:34:14.177Z,22.60
2023-09-12T21:36:43.232Z,22.80
2023-09-12T21:39:13.085Z,23.00
2023-09-12T21:41:43.254Z,23.10
2023-09-12T21:44:12.120Z,23.20
2023-09-12T21:46:41.047Z,23.30
2023-09-12T21:49:10.848Z,23.10
2023-09-12T21:51:40.115Z,23.00
2023-09-12T21:54:10.374Z,23.00
2023-09-12T21:56:39.364Z,23.00
2023-09-12T21:59:10.387Z,22.80
2023-09-12T22:01:40.400Z,22.80
2023-09-12T22:04:09.654Z,22.70
2023-09-12T22:06:38.803Z,22.60
2023-09-12T22:09:08.443Z,22.50
2023-09-12T22:11:37.474Z,22.50
2023-09-12T22:14:07.666Z,22.60
2023-09-12T22:16:38.489Z,22.40
2023-09-12T22:19:08.163Z,22.30
2023-09-12T22:21:37.123Z,22.30
2023-09-12T22:24:06.695Z,22.30
2023-09-12T22:26:35.399Z,22.30
2023-09-12T22:29:05.231Z,22.10
2023-09-12T22:31:34.473Z,22.10
2023-09-12T22:34:05.082Z,22.10
2023-09-12T22:36:33.680Z,21.90
2023-09-12T22:39:04.308Z,21.90
2023-09-12T22:41:33.121Z,21.80
2023-09-12T22:44:05.075Z,21.80
2023-09-12T22:46:34.937Z,21.80
2023-09-12T22:49:05.579Z,21.80
2023-09-12T22:51:35.273Z,21.80
2023-09-12T22:54:04.319Z,21.70
2023-09-12T22:56:33.435Z,21.60
2023-09-12T22:59:02.805Z,21.50
2023-09-12T23:01:34.688Z,21.40
2023-09-12T23:04:05.197Z,21.40
2023-09-12T23:06:34.824Z,21.30
2023-09-12T23:09:05.603Z,21.20
2023-09-12T23:11:34.974Z,21.00
2023-09-12T23:14:04.358Z,20.80
2023-09-12T23:16:33.836Z,20.80
2023-09-12T23:19:02.119Z,20.80
2023-09-12T23:21:32.023Z,20.80
2023-09-12T23:24:00.521Z,20.80
2023-09-12T23:26:28.754Z,20.70
2023-09-12T23:28:57.279Z,20.60
2023-09-12T23:31:25.903Z,20.60
2023-09-12T23:33:54.884Z,20.50
2023-09-12T23:36:23.903Z,20.40
2023-09-12T23:38:53.504Z,20.40
2023-09-12T23:41:21.832Z,20.40
2023-09-12T23:43:50.060Z,20.30
2023-09-12T23:46:18.272Z,20.30
2023-09-12T23:48:46.656Z,20.30
2023-09-12T23:51:16.400Z,20.30
2023-09-12T23:53:45.535Z,20.30
2023-09-12T23:56:15.443Z,20.30
2023-09-12T23:58:44.530Z,20.30
